Gold Coast Seaway, Queensland

2:25 PM AEST on February 11, 2016 (GMT +1000)
Labrador Gold Coast | | Change Station
CLOSE
Current Station
Personal Weather Station
Location: Biggera Waters, QUEENSLAND
Elevation: 37 ft
Nearby Weather Stations

Elev 37 ft 27.93 °S, 153.40 °E | Updated 11 seconds ago

Scattered Clouds
Scattered Clouds
85.3 °F
Feels Like 82 °F
N
17.7
Wind Variable Wind from ESE
Gusts 24.6 mph

Today
High -- | Low -- °F
--% Chance of Precip.
Yesterday
High -- | Low -- °F
Precip. -- in
Pressure 29.89 in
Visibility 6.2 miles
Clouds Scattered Clouds 3400 ft
Heat Index 82 °F
Dew Point 29 °F
Humidity 13%
Rainfall 0.00 in
Snow Depth Not available.
5:25 AM 6:35 PM
Waxing Crescent, 9% visible
METAR YBCG 110400Z AUTO 13015KT 9999 // SCT034 28/19 Q1012
Pressure 29.89 in
Visibility 6.2 miles
Clouds Scattered Clouds 3400 ft
Heat Index 82 °F
Dew Point 29 °F
Humidity 13%
Rainfall 0.00 in
Snow Depth Not available.
5:25 AM 6:35 PM
Waxing Crescent, 9% visible
METAR YBCG 110400Z AUTO 13015KT 9999 // SCT034 28/19 Q1012

10-Day Weather Forecast

Almanac

Astronomy

Feb. 11, 2016 Rise Set
Actual Time
Civil Twilight
Nautical Twilight
Astronomical Twilight
Moon
Length of Visible Light
Length of Day
Tomorrow will be .
, % of the Moon is Illuminated

Today's Extremes

Country Highs Country Lows

Community

WunderPhotos

Upload Photos

1,892,012 photos uploaded!

WunderBlog® & News

Nearby

Air Quality

  Air Quality AQ Index Pollutant
Not available.

Snow Depth

Station Depth Elevation

Earthquake Activity

City Distance Mag. Time & Date
Minimum magnitude displayed is 2.5.

Coastal Water Temperatures

Place Temperature

Stations

Nearby Weather Stations

Station Location Temp. Windchill Dew Point Humidity Wind Precip. Elev Updated Type